Time;durP1;ratioP1;P1;durP2;ratioP2;P2;SDS_P1;SDS_P2;PMS_P1;PMS_P2;Temp;Humidity;BMP_temperature;BMP_pressure;BME280_temperature;BME280_humidity;BME280_pressure;Samples;Min_cycle;Max_cycle;Signal;HPM_P1;HPM_P2
2023/01/12 00:02:07;;;;;;;393.48;45.78;;;;;;;;;;5011697;28;20054;-38
2023/01/12 00:04:54;;;;;;;370.17;44.08;;;;;;;;;;5012118;28;20500;-44
2023/01/12 00:07:22;;;;;;;358.98;43.45;;;;;;;;;;5010662;28;20030;-40
2023/01/12 00:09:50;;;;;;;373.95;45.40;;;;;;;;;;5011024;28;20029;-41
2023/01/12 00:12:17;;;;;;;525.67;61.65;;;;;;;;;;5012008;28;20101;-40
2023/01/12 00:14:44;;;;;;;494.80;54.28;;;;;;;;;;5011670;28;20105;-40
2023/01/12 00:17:15;;;;;;;441.15;53.03;;;;;;;;;;5011804;28;20044;-40
2023/01/12 00:19:57;;;;;;;389.42;47.92;;;;;;;;;;5012426;28;20042;-41
2023/01/12 00:22:24;;;;;;;425.77;50.42;;;;;;;;;;5010828;28;20026;-39
2023/01/12 00:24:53;;;;;;;411.80;46.95;;;;;;;;;;5011909;28;20081;-41
2023/01/12 00:27:21;;;;;;;357.10;45.22;;;;;;;;;;5010940;28;20046;-40
2023/01/12 00:29:48;;;;;;;365.20;45.88;;;;;;;;;;5010777;28;20399;-37
2023/01/12 00:32:17;;;;;;;355.73;43.63;;;;;;;;;;5012631;28;20493;-40
2023/01/12 00:34:44;;;;;;;310.73;42.28;;;;;;;;;;5011068;28;20172;-40
2023/01/12 00:37:12;;;;;;;303.33;38.47;;;;;;;;;;5011254;28;20403;-41
2023/01/12 00:39:39;;;;;;;310.23;37.22;;;;;;;;;;5014569;28;20111;-37
2023/01/12 00:47:36;;;;;;;323.15;41.65;;;;;;;;;;5012074;28;20036;-38
2023/01/12 00:50:03;;;;;;;298.15;39.75;;;;;;;;;;5012941;28;20121;-37
2023/01/12 00:52:30;;;;;;;340.52;41.17;;;;;;;;;;5013369;28;20038;-38
2023/01/12 00:54:57;;;;;;;394.35;45.58;;;;;;;;;;5012779;28;20437;-36
2023/01/12 00:57:24;;;;;;;320.48;38.50;;;;;;;;;;5010267;28;20060;-37
2023/01/12 00:59:53;;;;;;;283.98;35.85;;;;;;;;;;5011609;28;20037;-37
2023/01/12 01:02:20;;;;;;;290.88;36.83;;;;;;;;;;5011697;28;20057;-37
2023/01/12 01:04:47;;;;;;;280.23;34.78;;;;;;;;;;5012532;28;20491;-37
2023/01/12 01:07:15;;;;;;;226.25;30.88;;;;;;;;;;5012913;28;20022;-45
2023/01/12 01:09:43;;;;;;;269.35;34.75;;;;;;;;;;5010601;28;20022;-37
2023/01/12 01:12:10;;;;;;;253.70;33.33;;;;;;;;;;5010248;28;20548;-37
2023/01/12 01:14:37;;;;;;;268.92;34.72;;;;;;;;;;5012254;28;20021;-37
2023/01/12 01:17:04;;;;;;;232.38;33.10;;;;;;;;;;5010974;28;20034;-38
2023/01/12 01:19:32;;;;;;;247.90;32.50;;;;;;;;;;5012263;28;20025;-37
2023/01/12 01:22:00;;;;;;;231.80;33.15;;;;;;;;;;5009894;28;20033;-37
2023/01/12 01:24:27;;;;;;;225.05;31.98;;;;;;;;;;5011551;28;20032;-37
2023/01/12 01:26:54;;;;;;;222.27;32.13;;;;;;;;;;5011396;28;20026;-37
2023/01/12 01:29:21;;;;;;;248.82;33.03;;;;;;;;;;5009833;28;20384;-39
2023/01/12 01:31:48;;;;;;;197.32;31.83;;;;;;;;;;5010200;28;20073;-42
2023/01/12 01:34:15;;;;;;;196.10;29.95;;;;;;;;;;5010898;28;20075;-39
2023/01/12 01:36:42;;;;;;;414.17;53.47;;;;;;;;;;5011538;28;20038;-39
2023/01/12 01:39:09;;;;;;;443.35;55.97;;;;;;;;;;5011359;28;20111;-39
2023/01/12 01:41:36;;;;;;;410.67;55.20;;;;;;;;;;5011617;28;20034;-39
2023/01/12 01:44:05;;;;;;;426.05;53.35;;;;;;;;;;5011658;28;20124;-40
2023/01/12 01:46:37;;;;;;;368.52;45.95;;;;;;;;;;5010477;28;20467;-39
2023/01/12 01:49:23;;;;;;;307.17;40.80;;;;;;;;;;5007851;28;20088;-39
2023/01/12 01:51:50;;;;;;;300.20;40.58;;;;;;;;;;5007170;28;20030;-39
2023/01/12 01:54:18;;;;;;;241.75;35.33;;;;;;;;;;5007308;28;20026;-42
2023/01/12 01:56:45;;;;;;;209.63;30.52;;;;;;;;;;5008631;28;20030;-41
2023/01/12 01:59:18;;;;;;;147.75;26.52;;;;;;;;;;5006754;28;20088;-40
2023/01/12 02:01:45;;;;;;;172.05;28.48;;;;;;;;;;5008456;28;20022;-41
2023/01/12 02:04:12;;;;;;;166.05;29.83;;;;;;;;;;5009330;28;20195;-41
2023/01/12 02:06:39;;;;;;;243.65;36.58;;;;;;;;;;5011387;28;20079;-41
2023/01/12 02:09:16;;;;;;;162.02;31.02;;;;;;;;;;5009979;28;20025;-41
2023/01/12 02:17:14;;;;;;;121.18;23.75;;;;;;;;;;5011671;28;20104;-40
2023/01/12 02:19:54;;;;;;;120.80;21.80;;;;;;;;;;5012782;28;20088;-41
2023/01/12 02:22:39;;;;;;;133.30;23.38;;;;;;;;;;5012776;28;20073;-40
2023/01/12 02:25:19;;;;;;;112.78;20.88;;;;;;;;;;5012552;28;20037;-40
2023/01/12 02:27:55;;;;;;;104.22;21.15;;;;;;;;;;5011733;28;20053;-41
2023/01/12 02:30:37;;;;;;;127.78;22.88;;;;;;;;;;5012243;28;20045;-40
2023/01/12 02:33:03;;;;;;;157.63;24.45;;;;;;;;;;5011728;28;20038;-41
2023/01/12 02:35:30;;;;;;;140.88;23.50;;;;;;;;;;5010394;28;20034;-41
2023/01/12 02:37:58;;;;;;;179.13;28.83;;;;;;;;;;5011978;28;20040;-41
2023/01/12 02:40:35;;;;;;;204.27;28.08;;;;;;;;;;5012206;28;20054;-41
2023/01/12 02:43:10;;;;;;;188.45;27.63;;;;;;;;;;5012384;28;20442;-41
2023/01/12 02:45:46;;;;;;;191.88;28.38;;;;;;;;;;5012111;28;20037;-40
2023/01/12 02:48:36;;;;;;;197.95;29.30;;;;;;;;;;5010014;28;20104;-44
2023/01/12 02:51:10;;;;;;;243.15;34.33;;;;;;;;;;5003336;28;20555;-44
2023/01/12 02:53:58;;;;;;;156.18;26.88;;;;;;;;;;5011897;28;20040;-46
2023/01/12 02:56:38;;;;;;;194.52;28.27;;;;;;;;;;5010662;28;20073;-52
2023/01/12 02:59:11;;;;;;;215.07;31.50;;;;;;;;;;5010854;28;20029;-44
2023/01/12 03:01:38;;;;;;;179.00;27.77;;;;;;;;;;5010023;28;20025;-46
2023/01/12 03:04:07;;;;;;;218.95;30.63;;;;;;;;;;5008995;28;20112;-48
2023/01/12 03:06:54;;;;;;;232.43;33.97;;;;;;;;;;5008547;28;20026;-43
2023/01/12 03:09:23;;;;;;;155.70;24.55;;;;;;;;;;4969118;28;20038;-44
2023/01/12 03:11:53;;;;;;;137.90;22.75;;;;;;;;;;5009461;28;20435;-47
2023/01/12 03:14:21;;;;;;;90.55;17.63;;;;;;;;;;5010526;28;20886;-45
2023/01/12 03:16:49;;;;;;;104.68;18.10;;;;;;;;;;5010121;28;20388;-46
2023/01/12 03:19:19;;;;;;;88.57;16.50;;;;;;;;;;5010283;28;20042;-43
2023/01/12 03:21:55;;;;;;;80.55;17.30;;;;;;;;;;5007392;28;20096;-43
2023/01/12 03:24:25;;;;;;;91.28;16.88;;;;;;;;;;5010430;28;20033;-43
2023/01/12 03:26:55;;;;;;;87.95;16.45;;;;;;;;;;5010624;28;20530;-45
2023/01/12 03:29:26;;;;;;;80.75;15.82;;;;;;;;;;5009909;28;20417;-43
2023/01/12 03:31:53;;;;;;;86.40;14.93;;;;;;;;;;5010312;28;20030;-43
2023/01/12 03:34:21;;;;;;;97.38;15.75;;;;;;;;;;5010962;28;20026;-45
2023/01/12 03:37:02;;;;;;;82.65;15.15;;;;;;;;;;5010203;28;20029;-46
2023/01/12 03:39:37;;;;;;;85.37;15.80;;;;;;;;;;5009200;28;20071;-46
2023/01/12 03:42:08;;;;;;;113.13;17.65;;;;;;;;;;5008661;28;20103;-45
2023/01/12 03:45:01;;;;;;;98.68;16.90;;;;;;;;;;5009727;28;20025;-45
2023/01/12 03:47:30;;;;;;;98.28;17.30;;;;;;;;;;4990158;28;20148;-44
2023/01/12 03:50:00;;;;;;;86.47;16.60;;;;;;;;;;5009101;28;20037;-44
2023/01/12 03:52:28;;;;;;;92.85;16.63;;;;;;;;;;5010454;28;20034;-45
2023/01/12 03:54:57;;;;;;;94.03;15.63;;;;;;;;;;5010264;28;20041;-47
2023/01/12 03:57:25;;;;;;;102.40;17.58;;;;;;;;;;5005550;28;20049;-46
2023/01/12 03:59:53;;;;;;;96.10;15.68;;;;;;;;;;5009199;28;20030;-44
2023/01/12 04:02:22;;;;;;;94.72;15.27;;;;;;;;;;5006194;28;20041;-44
2023/01/12 04:04:50;;;;;;;158.02;20.92;;;;;;;;;;5009814;28;20108;-44
2023/01/12 04:07:17;;;;;;;93.00;16.40;;;;;;;;;;5009657;28;20065;-44
2023/01/12 04:09:44;;;;;;;106.15;15.25;;;;;;;;;;5009895;28;20034;-46
2023/01/12 04:12:20;;;;;;;136.93;19.45;;;;;;;;;;5008304;28;20044;-48
2023/01/12 04:14:48;;;;;;;137.82;19.60;;;;;;;;;;5007224;28;20042;-45
2023/01/12 04:17:16;;;;;;;117.50;19.30;;;;;;;;;;5008060;28;20551;-45
2023/01/12 04:19:43;;;;;;;126.57;17.77;;;;;;;;;;5008586;28;20064;-44
2023/01/12 04:25:05;;;;;;;113.60;18.08;;;;;;;;;;5012489;28;20107;-44
2023/01/12 04:27:32;;;;;;;116.80;17.90;;;;;;;;;;5010465;28;20058;-43
2023/01/12 04:29:59;;;;;;;141.05;18.35;;;;;;;;;;5013019;28;20040;-46
2023/01/12 04:32:27;;;;;;;157.68;21.17;;;;;;;;;;5013507;28;20109;-49
2023/01/12 04:34:54;;;;;;;152.23;19.85;;;;;;;;;;5014992;28;20080;-44
2023/01/12 04:37:21;;;;;;;140.13;18.50;;;;;;;;;;5014614;28;20025;-42
2023/01/12 04:39:48;;;;;;;117.90;17.30;;;;;;;;;;5014928;28;20022;-43
2023/01/12 04:45:00;;;;;;;127.68;18.25;;;;;;;;;;5014977;28;20049;-43
2023/01/12 04:47:27;;;;;;;116.13;17.80;;;;;;;;;;5014746;28;20391;-43
2023/01/12 04:49:54;;;;;;;107.88;17.08;;;;;;;;;;5014782;28;20038;-43
2023/01/12 04:52:21;;;;;;;112.45;15.35;;;;;;;;;;5014890;28;20097;-43
2023/01/12 04:54:48;;;;;;;111.45;16.88;;;;;;;;;;5014745;28;20427;-43
2023/01/12 04:57:15;;;;;;;120.22;16.67;;;;;;;;;;5014585;28;20399;-43
2023/01/12 04:59:42;;;;;;;119.72;17.48;;;;;;;;;;5014738;28;20049;-43
2023/01/12 05:02:09;;;;;;;118.53;16.48;;;;;;;;;;5014917;28;20034;-43
2023/01/12 05:04:36;;;;;;;108.85;15.40;;;;;;;;;;5014700;28;20030;-43
2023/01/12 05:07:03;;;;;;;111.20;14.43;;;;;;;;;;5014561;28;20101;-43
2023/01/12 05:12:15;;;;;;;88.32;14.05;;;;;;;;;;5014579;28;20522;-43
2023/01/12 05:14:42;;;;;;;84.53;13.07;;;;;;;;;;5014414;28;20026;-43
2023/01/12 05:17:09;;;;;;;108.68;14.90;;;;;;;;;;5014190;28;20651;-43
2023/01/12 05:19:36;;;;;;;91.22;13.13;;;;;;;;;;5014118;28;20033;-43
2023/01/12 05:22:03;;;;;;;73.53;10.40;;;;;;;;;;5013834;28;20030;-43
2023/01/12 05:24:30;;;;;;;74.60;10.18;;;;;;;;;;5014084;28;20036;-43
2023/01/12 05:26:57;;;;;;;54.58;9.35;;;;;;;;;;5014052;28;20029;-42
2023/01/12 05:29:24;;;;;;;54.20;8.73;;;;;;;;;;4975216;28;20042;-43
2023/01/12 05:31:51;;;;;;;57.80;9.63;;;;;;;;;;4974964;28;20485;-43
2023/01/12 05:34:21;;;;;;;63.40;8.48;;;;;;;;;;4974789;28;20037;-43
2023/01/12 05:36:48;;;;;;;62.05;9.25;;;;;;;;;;4974939;28;20497;-43
2023/01/12 05:39:15;;;;;;;45.88;7.10;;;;;;;;;;4990003;28;20039;-43
2023/01/12 05:44:29;;;;;;;53.08;8.25;;;;;;;;;;4954046;28;20063;-43
2023/01/12 05:46:56;;;;;;;48.95;9.57;;;;;;;;;;4974854;28;20030;-43
2023/01/12 05:49:23;;;;;;;59.72;8.00;;;;;;;;;;4974882;28;20031;-43
2023/01/12 05:51:50;;;;;;;50.42;8.18;;;;;;;;;;4974711;28;20031;-42
2023/01/12 05:54:17;;;;;;;54.22;8.98;;;;;;;;;;4974839;28;20081;-43
2023/01/12 05:56:44;;;;;;;53.92;8.05;;;;;;;;;;4974516;28;20063;-42
2023/01/12 05:59:11;;;;;;;49.90;8.35;;;;;;;;;;4974632;28;20055;-43
2023/01/12 06:01:39;;;;;;;44.08;8.20;;;;;;;;;;4972523;28;20037;-43
2023/01/12 06:04:07;;;;;;;48.50;8.63;;;;;;;;;;4974450;28;20042;-43
2023/01/12 06:06:34;;;;;;;53.65;8.75;;;;;;;;;;4974372;28;20026;-43
2023/01/12 06:09:02;;;;;;;45.42;8.10;;;;;;;;;;4974448;28;20026;-43
2023/01/12 06:14:15;;;;;;;51.45;8.57;;;;;;;;;;4974303;28;20049;-43
2023/01/12 06:16:43;;;;;;;50.60;8.40;;;;;;;;;;4974123;28;20392;-43
2023/01/12 06:19:10;;;;;;;50.85;8.18;;;;;;;;;;4974248;28;20093;-43
2023/01/12 06:21:37;;;;;;;46.08;7.25;;;;;;;;;;4973762;28;20039;-43
2023/01/12 06:24:05;;;;;;;51.08;8.18;;;;;;;;;;4954831;28;20043;-43
2023/01/12 06:26:31;;;;;;;49.17;8.35;;;;;;;;;;4954718;28;20035;-43
2023/01/12 06:28:58;;;;;;;48.83;8.43;;;;;;;;;;4986727;28;20145;-43
2023/01/12 06:31:25;;;;;;;38.75;6.85;;;;;;;;;;4993482;28;20030;-42
2023/01/12 06:33:52;;;;;;;38.20;6.65;;;;;;;;;;4993386;28;20065;-42
2023/01/12 06:36:19;;;;;;;37.78;6.90;;;;;;;;;;4993310;28;20034;-43
2023/01/12 06:38:46;;;;;;;40.45;6.22;;;;;;;;;;4993279;28;20495;-43
2023/01/12 06:43:59;;;;;;;31.92;6.40;;;;;;;;;;4992730;28;20534;-42
2023/01/12 06:46:26;;;;;;;29.33;6.18;;;;;;;;;;4993112;28;20062;-43
2023/01/12 06:48:57;;;;;;;26.85;5.80;;;;;;;;;;4993204;28;20463;-42
2023/01/12 06:51:24;;;;;;;26.50;5.78;;;;;;;;;;4993196;28;20034;-42
2023/01/12 06:53:51;;;;;;;26.42;6.07;;;;;;;;;;4993066;28;20022;-42
2023/01/12 06:56:18;;;;;;;31.08;5.75;;;;;;;;;;4992925;28;20476;-43
2023/01/12 06:58:45;;;;;;;22.67;4.82;;;;;;;;;;4993038;28;20027;-42
2023/01/12 07:01:12;;;;;;;29.45;5.20;;;;;;;;;;4993048;28;20038;-43
2023/01/12 07:03:39;;;;;;;23.25;5.57;;;;;;;;;;4992904;28;20092;-43
2023/01/12 07:06:06;;;;;;;19.98;5.30;;;;;;;;;;4992750;28;20039;-43
2023/01/12 07:08:33;;;;;;;17.65;4.95;;;;;;;;;;4992943;28;20518;-43
2023/01/12 07:11:06;;;;;;;18.48;4.95;;;;;;;;;;4992912;28;20036;-43
2023/01/12 07:13:33;;;;;;;19.50;4.70;;;;;;;;;;4992824;28;20054;-43
2023/01/12 07:16:01;;;;;;;22.20;4.88;;;;;;;;;;4992722;28;20451;-43
2023/01/12 07:18:28;;;;;;;17.85;5.05;;;;;;;;;;4992544;28;20034;-43
2023/01/12 07:20:55;;;;;;;25.02;4.63;;;;;;;;;;4992786;28;20076;-43
2023/01/12 07:23:23;;;;;;;30.08;4.72;;;;;;;;;;4992661;28;20137;-43
2023/01/12 07:25:49;;;;;;;21.60;4.53;;;;;;;;;;4992667;28;20089;-43
2023/01/12 07:28:16;;;;;;;14.15;3.30;;;;;;;;;;4992531;28;20092;-43
2023/01/12 07:30:43;;;;;;;18.25;3.63;;;;;;;;;;4992689;28;20037;-43
2023/01/12 07:33:12;;;;;;;14.07;3.25;;;;;;;;;;4991301;28;20416;-43
2023/01/12 07:35:39;;;;;;;11.70;3.20;;;;;;;;;;4992573;28;20031;-43
2023/01/12 07:38:06;;;;;;;15.45;3.35;;;;;;;;;;4992472;28;20510;-43
2023/01/12 07:40:33;;;;;;;12.85;3.00;;;;;;;;;;4992662;28;20369;-43
2023/01/12 07:43:08;;;;;;;16.13;2.92;;;;;;;;;;4992511;28;20050;-43
2023/01/12 07:45:35;;;;;;;19.20;3.10;;;;;;;;;;4992566;28;20053;-43
2023/01/12 07:48:02;;;;;;;12.82;2.88;;;;;;;;;;4992458;28;20022;-43
2023/01/12 07:50:29;;;;;;;8.93;2.40;;;;;;;;;;4992398;28;20041;-42
2023/01/12 07:53:00;;;;;;;7.32;2.17;;;;;;;;;;4992390;28;20369;-43
2023/01/12 07:55:27;;;;;;;5.68;1.73;;;;;;;;;;4992950;28;20026;-43
2023/01/12 07:57:57;;;;;;;8.27;1.90;;;;;;;;;;4996304;28;20061;-43
2023/01/12 08:00:25;;;;;;;9.10;1.98;;;;;;;;;;4996347;28;20539;-43
2023/01/12 08:02:57;;;;;;;11.75;1.70;;;;;;;;;;4996307;28;20484;-42
2023/01/12 08:05:24;;;;;;;;;;;;;;;;;;4996288;28;20135;-43
2023/01/12 08:07:51;;;;;;;8.57;1.90;;;;;;;;;;4996130;28;19917;-43
2023/01/12 08:10:18;;;;;;;7.18;1.73;;;;;;;;;;4996150;28;20053;-43
2023/01/12 08:12:45;;;;;;;9.90;1.90;;;;;;;;;;4996156;28;20045;-43
2023/01/12 08:15:12;;;;;;;5.25;1.92;;;;;;;;;;4995858;28;20396;-43
2023/01/12 08:18:02;;;;;;;6.95;1.88;;;;;;;;;;4995792;28;20038;-43
2023/01/12 08:20:32;;;;;;;12.18;2.15;;;;;;;;;;4995760;28;20033;-43
2023/01/12 08:23:03;;;;;;;17.15;2.72;;;;;;;;;;4995703;28;20062;-43
2023/01/12 08:25:33;;;;;;;9.10;2.20;;;;;;;;;;4995737;28;20049;-43
2023/01/12 08:28:02;;;;;;;11.27;2.28;;;;;;;;;;4995604;28;20094;-43
2023/01/12 08:30:29;;;;;;;34.97;4.97;;;;;;;;;;4995767;28;20054;-43
2023/01/12 08:32:58;;;;;;;41.95;6.60;;;;;;;;;;4995651;28;20061;-43
2023/01/12 08:35:27;;;;;;;23.95;4.07;;;;;;;;;;4994225;28;20042;-43
2023/01/12 08:37:55;;;;;;;20.48;3.95;;;;;;;;;;4995507;28;20040;-43
2023/01/12 08:40:23;;;;;;;25.73;4.82;;;;;;;;;;4995577;28;20495;-43
2023/01/12 08:42:50;;;;;;;15.60;3.25;;;;;;;;;;4995536;28;20022;-43
2023/01/12 08:45:19;;;;;;;18.27;3.20;;;;;;;;;;4995374;28;20034;-43
2023/01/12 08:47:47;;;;;;;21.70;3.35;;;;;;;;;;4995336;28;20537;-43
2023/01/12 08:50:14;;;;;;;13.60;3.30;;;;;;;;;;4995143;28;20030;-43
2023/01/12 08:52:41;;;;;;;50.65;6.13;;;;;;;;;;4995445;28;20511;-43
2023/01/12 08:55:10;;;;;;;51.95;6.15;;;;;;;;;;4995072;28;20034;-43
2023/01/12 08:57:37;;;;;;;33.03;4.88;;;;;;;;;;4996338;28;20061;-42
2023/01/12 09:00:05;;;;;;;28.52;4.07;;;;;;;;;;5014821;28;20448;-43
2023/01/12 09:02:32;;;;;;;21.15;3.97;;;;;;;;;;5014675;28;20033;-43
2023/01/12 09:04:59;;;;;;;23.38;3.72;;;;;;;;;;5014654;28;20030;-43
2023/01/12 09:07:26;;;;;;;226.40;21.08;;;;;;;;;;5013843;28;20080;-43
2023/01/12 09:09:53;;;;;;;42.40;4.80;;;;;;;;;;5014644;28;20022;-43
2023/01/12 09:12:20;;;;;;;25.85;4.10;;;;;;;;;;5014587;28;20018;-43
2023/01/12 09:14:47;;;;;;;38.92;5.30;;;;;;;;;;5014457;28;20054;-43
2023/01/12 09:17:14;;;;;;;49.63;6.40;;;;;;;;;;5014354;28;20034;-43
2023/01/12 09:19:43;;;;;;;46.55;6.32;;;;;;;;;;5014347;28;20042;-43
2023/01/12 09:22:11;;;;;;;141.60;15.13;;;;;;;;;;5014257;28;20394;-43
2023/01/12 09:24:37;;;;;;;123.43;12.25;;;;;;;;;;5014255;28;20037;-43
2023/01/12 09:27:04;;;;;;;92.38;11.07;;;;;;;;;;5014046;28;20072;-43
2023/01/12 09:29:31;;;;;;;80.78;8.10;;;;;;;;;;5014174;28;20508;-43
2023/01/12 09:31:58;;;;;;;70.43;7.63;;;;;;;;;;5014246;28;20064;-43
2023/01/12 09:34:25;;;;;;;39.22;4.57;;;;;;;;;;5014154;28;20029;-43
2023/01/12 09:36:55;;;;;;;34.85;4.63;;;;;;;;;;5013977;28;20037;-43
2023/01/12 09:39:22;;;;;;;31.90;3.75;;;;;;;;;;5013901;28;20388;-43
2023/01/12 09:47:20;;;;;;;36.47;4.75;;;;;;;;;;5013919;28;20061;-43
2023/01/12 09:50:00;;;;;;;30.80;4.50;;;;;;;;;;5013930;28;20026;-43
2023/01/12 09:52:29;;;;;;;70.70;7.70;;;;;;;;;;5013830;28;20018;-43
2023/01/12 09:54:56;;;;;;;47.60;6.45;;;;;;;;;;5013707;28;20018;-43
2023/01/12 09:57:41;;;;;;;24.52;3.95;;;;;;;;;;5013761;28;20036;-43
2023/01/12 10:00:08;;;;;;;27.80;3.63;;;;;;;;;;5013686;28;20763;-43
2023/01/12 10:02:37;;;;;;;40.35;4.38;;;;;;;;;;5013499;28;20030;-43
2023/01/12 10:05:07;;;;;;;54.85;5.70;;;;;;;;;;5013497;28;20041;-43
2023/01/12 10:07:35;;;;;;;33.75;3.63;;;;;;;;;;5013585;28;20160;-42
2023/01/12 10:10:02;;;;;;;35.33;3.72;;;;;;;;;;5013377;28;20022;-43
2023/01/12 10:12:28;;;;;;;30.88;3.45;;;;;;;;;;5013426;28;20032;-43
2023/01/12 10:14:55;;;;;;;27.85;2.42;;;;;;;;;;5013239;28;20022;-43
2023/01/12 10:17:30;;;;;;;28.80;2.40;;;;;;;;;;5013368;28;20037;-43
2023/01/12 10:20:15;;;;;;;36.80;3.97;;;;;;;;;;5013196;28;20033;-43
2023/01/12 10:23:05;;;;;;;29.88;3.03;;;;;;;;;;5013167;28;20030;-43
2023/01/12 10:25:37;;;;;;;19.42;2.67;;;;;;;;;;5005494;28;20049;-43
2023/01/12 10:28:07;;;;;;;15.88;2.22;;;;;;;;;;5013070;28;20180;-43
2023/01/12 10:30:35;;;;;;;18.70;2.15;;;;;;;;;;5013175;28;20091;-43
2023/01/12 10:33:19;;;;;;;14.10;1.75;;;;;;;;;;5013104;28;20028;-43
2023/01/12 10:35:49;;;;;;;15.88;1.58;;;;;;;;;;5012901;28;20113;-43
2023/01/12 10:38:36;;;;;;;35.95;4.43;;;;;;;;;;5012853;28;20034;-43
2023/01/12 10:41:15;;;;;;;25.55;3.13;;;;;;;;;;5012879;28;20119;-43
2023/01/12 10:43:43;;;;;;;16.35;1.80;;;;;;;;;;5012776;28;20036;-43
2023/01/12 10:46:17;;;;;;;10.55;1.33;;;;;;;;;;5012790;28;20037;-43
2023/01/12 10:48:48;;;;;;;56.55;5.43;;;;;;;;;;5012793;28;20117;-43
2023/01/12 10:51:27;;;;;;;16.55;1.67;;;;;;;;;;5012782;28;20030;-42
2023/01/12 10:54:00;;;;;;;25.60;2.60;;;;;;;;;;5012633;28;20022;-43
2023/01/12 10:56:34;;;;;;;34.95;3.50;;;;;;;;;;5012504;28;20021;-43
2023/01/12 10:59:01;;;;;;;70.43;6.20;;;;;;;;;;5012404;28;20087;-43
2023/01/12 11:01:49;;;;;;;70.90;7.35;;;;;;;;;;5012600;28;20058;-43
2023/01/12 11:04:28;;;;;;;37.38;3.63;;;;;;;;;;5012484;28;20037;-43
2023/01/12 11:07:03;;;;;;;17.65;2.58;;;;;;;;;;5011348;28;20038;-43
2023/01/12 11:09:30;;;;;;;52.75;5.05;;;;;;;;;;5012542;28;20030;-43
2023/01/12 11:12:02;;;;;;;34.03;3.65;;;;;;;;;;5012487;28;20514;-43
2023/01/12 11:14:34;;;;;;;27.13;2.53;;;;;;;;;;5012531;28;20034;-43
2023/01/12 11:17:05;;;;;;;24.10;2.63;;;;;;;;;;5012212;28;20041;-43
2023/01/12 11:19:39;;;;;;;21.30;2.55;;;;;;;;;;5012469;28;20467;-43
2023/01/12 11:22:10;;;;;;;24.38;6.43;;;;;;;;;;5012367;28;20022;-43
2023/01/12 11:24:46;;;;;;;17.95;7.30;;;;;;;;;;5012331;28;20079;-43
2023/01/12 11:27:13;;;;;;;23.42;7.65;;;;;;;;;;5012142;28;20037;-43
2023/01/12 11:29:50;;;;;;;80.00;10.25;;;;;;;;;;5012145;28;20030;-43
2023/01/12 11:32:28;;;;;;;23.33;4.97;;;;;;;;;;5012042;28;20495;-43
2023/01/12 11:35:13;;;;;;;22.35;5.45;;;;;;;;;;5012114;28;20040;-43
2023/01/12 11:37:41;;;;;;;23.67;4.78;;;;;;;;;;5011657;28;20038;-42
2023/01/12 11:40:18;;;;;;;17.88;3.47;;;;;;;;;;5012209;28;20029;-42
2023/01/12 11:45:46;;;;;;;14.45;3.05;;;;;;;;;;5012362;28;20048;-43
2023/01/12 11:48:25;;;;;;;12.55;2.85;;;;;;;;;;5012118;28;20034;-43
2023/01/12 11:50:53;;;;;;;28.25;3.55;;;;;;;;;;5012115;28;20532;-43
2023/01/12 11:53:24;;;;;;;20.80;3.33;;;;;;;;;;5012033;28;20076;-43
2023/01/12 11:56:14;;;;;;;29.08;3.58;;;;;;;;;;5011996;28;20026;-43
2023/01/12 11:58:47;;;;;;;19.67;2.50;;;;;;;;;;5004500;28;20046;-42
2023/01/12 12:01:17;;;;;;;23.10;3.50;;;;;;;;;;5011651;28;20092;-43
2023/01/12 12:04:02;;;;;;;24.35;3.00;;;;;;;;;;5011073;28;20450;-44
2023/01/12 12:06:48;;;;;;;13.82;2.00;;;;;;;;;;5011647;28;20026;-44
2023/01/12 12:09:19;;;;;;;14.50;2.80;;;;;;;;;;5011954;28;20022;-44
2023/01/12 12:12:03;;;;;;;22.05;3.40;;;;;;;;;;5011888;28;20101;-44
2023/01/12 12:14:57;;;;;;;16.92;2.90;;;;;;;;;;5011881;28;20038;-44
2023/01/12 12:17:53;;;;;;;17.08;2.50;;;;;;;;;;5011035;28;20104;-44
2023/01/12 12:20:27;;;;;;;17.55;2.45;;;;;;;;;;4973897;28;20043;-44
2023/01/12 12:23:07;;;;;;;19.65;2.63;;;;;;;;;;5009312;28;20024;-44
2023/01/12 12:25:49;;;;;;;18.90;2.33;;;;;;;;;;5009241;28;20438;-44
2023/01/12 12:28:22;;;;;;;26.20;3.03;;;;;;;;;;5009529;28;20129;-44
2023/01/12 12:30:57;;;;;;;39.45;4.10;;;;;;;;;;5008583;28;20112;-44
2023/01/12 12:33:27;;;;;;;18.13;3.05;;;;;;;;;;5011081;28;20127;-44
2023/01/12 12:36:02;;;;;;;26.77;3.88;;;;;;;;;;5011580;28;20487;-44
2023/01/12 12:38:47;;;;;;;18.30;2.53;;;;;;;;;;5011558;28;20033;-44
2023/01/12 12:47:18;;;;;;;34.53;4.28;;;;;;;;;;5012837;28;20045;-45
2023/01/12 12:49:45;;;;;;;23.70;3.35;;;;;;;;;;5010894;28;20025;-45
2023/01/12 12:52:12;;;;;;;64.53;6.50;;;;;;;;;;5013562;28;20029;-45
2023/01/12 12:54:40;;;;;;;36.80;4.90;;;;;;;;;;5013652;28;20032;-45
2023/01/12 12:57:07;;;;;;;33.95;3.50;;;;;;;;;;5010834;28;20395;-44
2023/01/12 12:59:34;;;;;;;32.97;3.20;;;;;;;;;;5012392;28;20026;-45
2023/01/12 13:02:02;;;;;;;25.02;3.20;;;;;;;;;;5013920;28;20067;-44
2023/01/12 13:04:45;;;;;;;16.75;2.42;;;;;;;;;;5011779;28;20033;-44
2023/01/12 13:07:18;;;;;;;22.23;3.80;;;;;;;;;;5011764;28;20392;-45
2023/01/12 13:09:45;;;;;;;22.23;3.65;;;;;;;;;;5014004;28;20026;-44
2023/01/12 13:12:12;;;;;;;25.38;3.67;;;;;;;;;;5013999;28;20095;-44
2023/01/12 13:14:43;;;;;;;33.42;3.40;;;;;;;;;;5013283;28;20032;-45
2023/01/12 13:17:19;;;;;;;21.80;3.13;;;;;;;;;;5013465;28;20045;-44
2023/01/12 13:19:45;;;;;;;18.20;2.75;;;;;;;;;;5014052;28;20029;-44
2023/01/12 13:22:28;;;;;;;15.80;2.47;;;;;;;;;;5014010;28;20502;-45
2023/01/12 13:24:54;;;;;;;;;;;;;;;;;;5014488;28;20116;-45
2023/01/12 13:27:40;;;;;;;29.15;4.20;;;;;;;;;;5013965;28;19924;-45
2023/01/12 13:30:22;;;;;;;32.88;3.30;;;;;;;;;;5014182;28;20471;-45
2023/01/12 13:32:48;;;;;;;;;;;;;;;;;;5014699;28;20034;-45
2023/01/12 13:35:31;;;;;;;39.83;4.63;;;;;;;;;;5013472;28;19912;-45
2023/01/12 13:38:01;;;;;;;33.10;3.58;;;;;;;;;;5012528;28;20038;-46
2023/01/12 13:40:31;;;;;;;23.48;2.72;;;;;;;;;;5011140;28;20476;-46
2023/01/12 13:43:15;;;;;;;16.70;2.78;;;;;;;;;;5013147;28;20515;-45
2023/01/12 13:46:05;;;;;;;33.95;3.83;;;;;;;;;;5013002;28;20053;-46
2023/01/12 13:48:34;;;;;;;29.77;3.65;;;;;;;;;;5004212;28;20084;-45
2023/01/12 13:51:19;;;;;;;22.80;2.88;;;;;;;;;;5013220;28;20030;-45
2023/01/12 13:53:58;;;;;;;28.23;3.00;;;;;;;;;;5010410;28;20034;-45
2023/01/12 13:56:25;;;;;;;25.02;3.20;;;;;;;;;;5010420;28;20080;-46
2023/01/12 13:58:58;;;;;;;30.90;4.45;;;;;;;;;;5012770;28;20041;-45
2023/01/12 14:01:27;;;;;;;33.15;3.63;;;;;;;;;;5010424;28;20041;-45
2023/01/12 14:03:58;;;;;;;22.25;2.88;;;;;;;;;;5012491;28;20033;-47
2023/01/12 14:06:40;;;;;;;23.90;3.78;;;;;;;;;;5012384;28;20037;-46
2023/01/12 14:09:14;;;;;;;18.38;2.80;;;;;;;;;;5010042;28;20022;-46
2023/01/12 14:11:52;;;;;;;40.03;3.80;;;;;;;;;;5012595;28;20072;-46
2023/01/12 14:17:56;;;;;;;24.30;3.22;;;;;;;;;;5008219;28;20443;-45
2023/01/12 14:20:27;;;;;;;30.30;3.38;;;;;;;;;;5012304;28;20084;-44
2023/01/12 14:23:06;;;;;;;44.50;5.07;;;;;;;;;;5012341;28;20428;-45
2023/01/12 14:25:33;;;;;;;20.35;3.10;;;;;;;;;;5010798;28;20026;-45
2023/01/12 14:28:00;;;;;;;22.33;2.55;;;;;;;;;;5010389;28;20112;-44
2023/01/12 14:30:27;;;;;;;13.90;1.95;;;;;;;;;;5011998;28;20038;-45
2023/01/12 14:32:54;;;;;;;13.73;2.10;;;;;;;;;;5012261;28;20168;-42
2023/01/12 14:35:23;;;;;;;26.70;2.50;;;;;;;;;;5010591;28;20038;-41
2023/01/12 14:37:52;;;;;;;45.60;4.57;;;;;;;;;;5011896;28;20049;-42
2023/01/12 14:40:30;;;;;;;28.27;3.75;;;;;;;;;;5012318;28;20472;-39
2023/01/12 14:49:03;;;;;;;22.23;2.72;;;;;;;;;;5003088;28;20121;-41
2023/01/12 14:51:39;;;;;;;20.80;2.70;;;;;;;;;;5009527;28;20038;-42
2023/01/12 14:54:08;;;;;;;18.38;2.35;;;;;;;;;;5011721;28;20029;-42
2023/01/12 14:56:38;;;;;;;26.10;2.63;;;;;;;;;;5011020;28;20025;-41
2023/01/12 14:59:07;;;;;;;14.75;1.70;;;;;;;;;;5011973;28;20038;-42
2023/01/12 15:01:37;;;;;;;18.50;2.03;;;;;;;;;;5011140;28;20038;-44
2023/01/12 15:04:05;;;;;;;15.40;2.80;;;;;;;;;;5011847;28;20033;-41
2023/01/12 15:06:39;;;;;;;14.52;2.30;;;;;;;;;;5010611;28;20049;-41
2023/01/12 15:09:09;;;;;;;11.43;2.00;;;;;;;;;;5011923;28;20030;-41
2023/01/12 15:11:37;;;;;;;20.42;2.40;;;;;;;;;;5008823;28;20483;-42
2023/01/12 15:14:05;;;;;;;24.08;2.90;;;;;;;;;;5010045;28;20547;-41
2023/01/12 15:27:33;;;;;;;22.92;2.72;;;;;;;;;;5012459;28;20056;-42
2023/01/12 15:30:01;;;;;;;19.48;3.00;;;;;;;;;;5012386;28;20037;-42
2023/01/12 15:32:40;;;;;;;20.33;2.55;;;;;;;;;;5012196;28;20116;-41
2023/01/12 15:35:13;;;;;;;18.80;2.78;;;;;;;;;;5012431;28;20036;-42
2023/01/12 15:37:40;;;;;;;17.08;2.30;;;;;;;;;;5012337;28;20026;-41
2023/01/12 15:40:08;;;;;;;35.92;3.90;;;;;;;;;;5010527;28;20041;-41
2023/01/12 15:42:35;;;;;;;27.10;3.22;;;;;;;;;;5009728;28;20368;-41
2023/01/12 15:45:02;;;;;;;16.73;2.97;;;;;;;;;;5012345;28;20810;-41
2023/01/12 15:47:29;;;;;;;20.10;2.90;;;;;;;;;;5012426;28;20113;-41